• Join FlightAware (Why Join?)
  • Login
  • US Flag 
03:21PM EDT


 

Airport Tracker/Info


-or-


 

Live Flight TrackerFlight Track Log ✈ AWE3397 ✈ 24-May-2013 ✈ KPHL - KMSY

Flight Track Log - Related Links

Times and Time Zones

All times are in EDT time to prevent confusion due to time zone crossing. See the AWE3397 flight status page for this flight to view local times or setup timezone preferences in your user account.

Time Position Orientation Groundspeed Altitude Reporting Facility
EDT Latitude Longitude Course Direction KTS MPH feet Rate Location/Type
09:25AM 39.8667 -75.2833 261° West 148 170 800  Level Philadelphia TRACON
09:26AM 39.8500 -75.3333 247° West 184 212 2,000 1,740 Climbing Philadelphia TRACON
09:27AM 39.8333 -75.4000 252° West 236 272 4,000 2,460 Climbing Philadelphia TRACON
09:28AM 39.8333 -75.7439 270° West  Level FlightAware Approximate
09:28AM 39.8333 -75.4833 270° West 275 316 6,500  Level Philadelphia TRACON
09:29AM 39.8183 -75.8737 258° West  Level FlightAware Approximate
09:30AM 39.7996 -76.0030 261° West  Level FlightAware Approximate
09:30AM 39.8342 -75.6289 270° West 289 333 10,600  Level New York Center
09:31AM 39.7834 -76.1331 261° West  Level FlightAware Approximate
09:31AM 39.8356 -75.7453 271° West 294 338 12,100  Level New York Center
09:32AM 39.8308 -75.8583 267° West 294 338 13,000 960 Climbing New York Center
09:33AM 39.8172 -75.9764 262° West 326 375 14,100 1,440 Climbing New York Center
09:34AM 39.8036 -76.0942 261° West 331 381 16,000 1,920 Climbing New York Center
09:35AM 39.7836 -76.2117 258° West 337 388 18,000 1,920 Climbing New York Center
09:36AM 39.7408 -76.3272 244° Southwest 337 388 19,900 1,740 Climbing New York Center
09:36AM 39.7089 -76.4061 242° Southwest 357 411 21,200 1,680 Climbing Washington Center
09:37AM 39.6497 -76.5050 232° Southwest 363 418 22,900 1,560 Climbing Washington Center
09:38AM 39.5781 -76.6147 230° Southwest 363 418 24,400 1,440 Climbing Washington Center
09:39AM 39.5083 -76.7158 228° Southwest 368 423 25,800 1,200 Climbing Washington Center
09:40AM 39.4450 -76.8169 231° Southwest 373 429 26,800 960 Climbing Washington Center
09:41AM 39.3792 -76.9206 231° Southwest 373 429 27,800 1,140 Climbing Washington Center
09:42AM 39.3092 -77.0239 229° Southwest 378 435 29,200 1,140 Climbing Washington Center
09:43AM 39.2456 -77.1244 231° Southwest 378 435 30,200 840 Climbing Washington Center
09:44AM 39.1753 -77.2275 229° Southwest 373 429 30,900 720 Climbing Washington Center
09:45AM 39.1092 -77.3303 230° Southwest 373 429 31,700 540 Climbing Washington Center
09:46AM 39.0389 -77.4356 229° Southwest 373 429 32,000 120 Climbing Washington Center
09:47AM 38.9706 -77.5381 229° Southwest 378 435 32,000  Level Washington Center
09:48AM 38.9086 -77.6325 230° Southwest 378 435 32,000  Level Washington Center
09:49AM 38.8317 -77.7475 229° Southwest 384 442 32,000  Level Washington Center
09:50AM 38.7672 -77.8442 229° Southwest 390 449 32,000  Level Washington Center
09:51AM 38.7006 -77.9458 230° Southwest 390 449 32,000  Level Washington Center
09:52AM 38.6319 -78.0472 229° Southwest 384 442 32,000  Level Washington Center
09:53AM 38.5631 -78.1458 228° Southwest 384 442 32,000  Level Washington Center
09:54AM 38.4942 -78.2497 230° Southwest 378 435 32,000  Level Washington Center
09:55AM 38.4253 -78.3506 229° Southwest 378 435 32,000  Level Washington Center
09:56AM 38.3581 -78.4514 230° Southwest 378 435 32,000  Level Washington Center
09:57AM 38.2869 -78.5519 228° Southwest 378 435 32,000  Level Washington Center
09:58AM 38.2217 -78.6550 231° Southwest 378 435 32,000  Level Washington Center
09:59AM 38.1525 -78.7525 228° Southwest 378 435 32,000  Level Washington Center
10:00AM 38.0722 -78.8678 229° Southwest 378 435 32,000  Level Washington Center
10:01AM 38.0006 -78.9700 228° Southwest 383 441 32,000  Level Washington Center
10:02AM 37.9331 -79.0697 229° Southwest 383 441 32,000  Level Washington Center
10:03AM 37.8694 -79.1800 234° Southwest 383 441 32,000  Level Washington Center
10:04AM 37.8181 -79.2853 238° Southwest 389 448 32,000  Level Washington Center
10:05AM 37.7603 -79.3981 237° Southwest 389 448 32,000  Level Washington Center
10:06AM 37.6981 -79.5208 237° Southwest 383 441 32,000  Level Washington Center
10:07AM 37.6489 -79.6206 238° Southwest 377 434 32,000  Level Washington Center
10:08AM 37.5864 -79.7406 237° Southwest 384 442 32,000  Level Washington Center
10:09AM 37.5369 -79.8400 238° Southwest 377 434 32,000  Level Washington Center
10:10AM 37.4786 -79.9572 238° Southwest 389 448 32,000  Level Washington Center
10:11AM 37.4200 -80.0689 237° Southwest 389 448 32,000  Level Washington Center
10:12AM 37.3572 -80.1853 236° Southwest 378 435 32,000  Level Atlanta Center
10:13AM 37.3022 -80.2950 238° Southwest 378 435 32,000  Level Atlanta Center
10:14AM 37.2453 -80.4072 238° Southwest 378 435 32,000  Level Atlanta Center
10:15AM 37.1881 -80.5167 237° Southwest 378 435 32,000  Level Atlanta Center
10:16AM 37.1247 -80.6419 238° Southwest 383 441 32,000  Level Atlanta Center
10:17AM 37.0697 -80.7586 239° Southwest 383 441 32,000  Level Atlanta Center
10:18AM 37.0269 -80.8775 246° West 383 441 32,000  Level Atlanta Center
10:19AM 36.9819 -81.0014 246° West 388 447 32,000  Level Atlanta Center
10:20AM 36.9450 -81.1117 247° West 388 447 32,100 420 Climbing Atlanta Center
10:21AM 36.9000 -81.2328 245° Southwest 383 441 32,900 840 Climbing Atlanta Center
10:22AM 36.8567 -81.3536 246° West 383 441 33,800 540 Climbing Atlanta Center
10:23AM 36.8114 -81.4719 244° Southwest 383 441 34,000 60 Climbing Atlanta Center
10:24AM 36.7703 -81.6053 249° West 378 435 34,000  Level Atlanta Center
10:25AM 36.7247 -81.7258 245° Southwest 384 442 34,000  Level Atlanta Center
10:26AM 36.6831 -81.8411 246° West 376 433 34,000  Level Atlanta Center
10:27AM 36.6392 -81.9561 245° Southwest 371 427 34,000  Level Atlanta Center
10:28AM 36.5953 -82.0736 245° Southwest 371 427 34,000  Level Atlanta Center
10:29AM 36.5531 -82.1858 245° Southwest 366 421 34,000  Level Atlanta Center
10:30AM 36.5089 -82.3031 245° Southwest 366 421 34,000  Level Atlanta Center
10:31AM 36.4647 -82.4200 245° Southwest 371 427 34,000  Level Atlanta Center
10:32AM 36.4225 -82.5397 246° West 371 427 34,000  Level Atlanta Center
10:33AM 36.3781 -82.6567 245° Southwest 376 433 34,000  Level Atlanta Center
10:34AM 36.3333 -82.7733 245° Southwest 381 438 34,000  Level Atlanta Center
10:35AM 36.2886 -82.8900 245° Southwest 381 438 34,000  Level Atlanta Center
10:36AM 36.2458 -83.0064 246° West 381 438 34,000  Level Atlanta Center
10:37AM 36.2008 -83.1253 245° Southwest 381 438 34,000  Level Atlanta Center
10:38AM 36.1619 -83.2311 246° West 381 438 34,000  Level Atlanta Center
10:39AM 36.1169 -83.3472 244° Southwest 381 438 34,000  Level Atlanta Center
10:40AM 36.0717 -83.4658 245° Southwest 381 438 34,000  Level Atlanta Center
10:41AM 36.0261 -83.5792 244° Southwest 376 433 34,000  Level Atlanta Center
10:42AM 35.9828 -83.6975 246° West 376 433 34,000  Level Atlanta Center
10:43AM 35.9392 -83.8106 245° Southwest 376 433 34,000  Level Atlanta Center
10:44AM 35.8850 -83.9233 239° Southwest 381 438 34,000  Level Atlanta Center
10:45AM 35.8122 -84.0258 229° Southwest 395 455 34,000  Level Atlanta Center
10:46AM 35.7392 -84.1283 229° Southwest 400 460 34,000  Level Atlanta Center
10:47AM 35.6661 -84.2306 229° Southwest 400 460 34,000  Level Atlanta Center
10:48AM 35.5928 -84.3325 229° Southwest 400 460 34,000  Level Atlanta Center
10:49AM 35.5194 -84.4342 228° Southwest 405 466 34,000  Level Atlanta Center
10:50AM 35.4439 -84.5358 228° Southwest 410 472 34,000  Level Atlanta Center
10:51AM 35.3642 -84.6475 229° Southwest 410 472 34,000  Level Atlanta Center
10:52AM 35.2886 -84.7486 228° Southwest 410 472 34,000  Level Atlanta Center
10:53AM 35.2150 -84.8522 229° Southwest 410 472 34,000  Level Atlanta Center
10:54AM 35.1369 -84.9581 228° Southwest 410 472 34,000  Level Atlanta Center
10:55AM 35.0611 -85.0614 228° Southwest 410 472 34,000  Level Atlanta Center
10:56AM 34.9850 -85.1669 229° Southwest 410 472 34,000  Level Atlanta Center
10:57AM 34.9067 -85.2697 227° Southwest 410 472 34,000  Level Atlanta Center
10:58AM 34.8306 -85.3747 229° Southwest 410 472 34,000  Level Atlanta Center
10:59AM 34.7542 -85.4772 228° Southwest 410 472 34,000  Level Atlanta Center
11:00AM 34.6758 -85.5794 227° Southwest 410 472 34,000  Level Atlanta Center
11:01AM 34.5972 -85.6842 228° Southwest 410 472 34,000  Level Atlanta Center
11:02AM 34.5206 -85.7883 228° Southwest 410 472 34,000  Level Atlanta Center
11:03AM 34.4525 -85.8778 227° Southwest 410 472 34,000  Level Atlanta Center
11:04AM 34.3739 -85.9767 226° Southwest 410 472 34,000  Level Atlanta Center
11:05AM 34.2969 -86.0806 228° Southwest 410 472 34,000  Level Atlanta Center
11:06AM 34.2181 -86.1867 228° Southwest 410 472 34,000  Level Atlanta Center
11:07AM 34.1411 -86.2875 227° Southwest 410 472 34,000  Level Atlanta Center
11:08AM 34.0597 -86.3908 226° Southwest 415 478 34,000  Level Atlanta Center
11:09AM 33.9806 -86.4964 228° Southwest 415 478 34,000  Level Atlanta Center
11:10AM 33.9011 -86.5992 227° Southwest 415 478 34,000  Level Atlanta Center
11:11AM 33.8197 -86.7042 227° Southwest 415 478 34,000  Level Atlanta Center
11:12AM 33.7381 -86.8067 226° Southwest 420 483 34,000  Level Atlanta Center
11:13AM 33.6606 -86.9139 229° Southwest 420 483 34,000  Level Atlanta Center
11:14AM 33.5869 -87.0211 231° Southwest 425 489 34,000  Level Atlanta Center
11:15AM 33.5133 -87.1308 231° Southwest 425 489 34,000  Level Atlanta Center
11:16AM 33.4439 -87.2378 232° Southwest 418 481 34,000  Level Atlanta Center
11:19AM 33.2694 -87.4975 231° Southwest 412 474 34,000  Level Memphis Center
11:20AM 33.1986 -87.6042 232° Southwest 412 474 34,000  Level Memphis Center
11:21AM 33.1258 -87.7131 231° Southwest 417 480 34,000  Level Memphis Center
11:22AM 33.0531 -87.8217 231° Southwest 417 480 34,000  Level Memphis Center
11:23AM 32.9761 -87.9403 232° Southwest 417 480 34,000  Level Memphis Center
11:24AM 32.9050 -88.0436 231° Southwest 417 480 34,000  Level Memphis Center
11:25AM 32.8400 -88.1394 231° Southwest 417 480 34,000  Level Memphis Center
11:26AM 32.7667 -88.2450 230° Southwest 417 480 34,000  Level Memphis Center
11:27AM 32.6933 -88.3528 231° Southwest 422 486 34,000  Level Memphis Center
11:28AM 32.6219 -88.4556 231° Southwest 422 486 34,000  Level Memphis Center
11:29AM 32.5503 -88.5631 232° Southwest 422 486 34,000  Level Memphis Center
11:30AM 32.4747 -88.6706 230° Southwest 427 491 34,000  Level Memphis Center
11:31AM 32.4008 -88.7753 230° Southwest 427 491 34,000  Level Memphis Center
11:32AM 32.3103 -88.8728 222° Southwest 427 491 34,000  Level Memphis Center
11:33AM 32.2172 -88.9625 219° Southwest 432 497 34,000  Level Memphis Center
11:34AM 32.1244 -89.0522 219° Southwest 439 505 34,000  Level Memphis Center
11:35AM 32.0314 -89.1419 219° Southwest 439 505 34,000 -780 Level Memphis Center
11:37AM 31.8733 -89.2939 219° Southwest 440 506 31,900 -1,620 Descending Houston Center
11:38AM 31.7583 -89.4039 219° Southwest 447 514 29,500 -2,100 Descending Houston Center
11:39AM 31.6639 -89.4956 220° Southwest 443 510 27,600 -1,860 Descending Houston Center
11:40AM 31.5756 -89.5803 219° Southwest 402 463 25,700 -1,560 Descending Houston Center
11:41AM 31.4956 -89.6542 218° Southwest 373 429 24,400 -840 Descending Houston Center
11:42AM 31.4172 -89.7303 220° Southwest 368 423 24,000 -240 Descending Houston Center
11:43AM 31.3375 -89.8056 219° Southwest 370 426 24,000  Level Houston Center
11:44AM 31.2389 -89.9000 219° Southwest 382 440 24,000 -120 Level Houston Center
11:45AM 31.1556 -89.9769 218° Southwest 384 442 23,800 -1,020 Descending Houston Center
11:46AM 31.0736 -90.0539 219° Southwest 381 438 21,900 -1,920 Descending Houston Center
11:47AM 30.9944 -90.1286 219° Southwest 372 428 19,900 -1,920 Descending Houston Center
11:48AM 30.9161 -90.2008 218° Southwest 364 419 18,000 -1,800 Descending Houston Center
11:49AM 30.8219 -90.2239 192° South 361 415 16,200 -2,040 Descending Houston Center
11:50AM 30.7011 -90.2147 176° South 364 419 13,800 -2,100 Descending Houston Center
11:51AM 30.5972 -90.2072 176° South 358 412 11,900 -1,620 Descending Houston Center
11:52AM 30.5283 -90.2028 177° South 335 386 11,000 -1,020 Descending Houston Center
11:52AM 30.5125 -90.2008 174° South 335 386 10,900 -1,320 Descending Houston Center
11:53AM 30.4569 -90.1958 176° South 300 345 9,800 -1,800 Descending Houston Center
11:53AM 30.4289 -90.1950 179° South 312 359 9,100 -1,920 Descending Houston Center
11:54AM 30.3669 -90.1875 174° South 297 342 7,900 -1,860 Descending Houston Center
11:54AM 30.3308 -90.1856 177° South 302 348 7,200 -1,620 Descending Houston Center
11:55AM 30.2508 -90.1806 177° South 296 341 5,500 -1,680 Descending Houston Center
11:56AM 30.2119 -90.1794 179° South 283 326 4,800 -1,440 Descending Houston Center
11:56AM 30.1733 -90.1758 175° South 289 333 4,000 -840 Descending Houston Center
11:57AM 30.1367 -90.1731 176° South 281 323 4,000  Level Houston Center
11:57AM 30.0994 -90.1717 178° South 279 321 4,000  Level Houston Center
11:58AM 30.0528 -90.1692 177° South 272 313 4,000 -120 Level Houston Center
11:58AM 30.0250 -90.1683 179° South 273 314 3,900 -600 Descending Houston Center
11:59AM 29.9864 -90.1792 194° South 235 270 3,400 -1,020 Descending Houston Center
11:59AM 29.9503 -90.1878 192° South 244 281 2,900 -840 Descending Houston Center
12:00PM 29.9239 -90.1911 186° South 219 252 2,600 -720 Descending Houston Center